sensor_id;sensor_type;location;lat;lon;timestamp;temperature;humidity
51863;DHT22;37900;52.996;6.278;2024-03-29T00:02:24;17.10;89.70
51863;DHT22;37900;52.996;6.278;2024-03-29T00:04:49;17.10;89.60
51863;DHT22;37900;52.996;6.278;2024-03-29T00:07:15;17.10;89.50
51863;DHT22;37900;52.996;6.278;2024-03-29T00:09:40;17.10;89.50
51863;DHT22;37900;52.996;6.278;2024-03-29T00:12:06;17.10;88.90
51863;DHT22;37900;52.996;6.278;2024-03-29T00:14:32;17.10;89.90
51863;DHT22;37900;52.996;6.278;2024-03-29T00:16:57;17.10;89.20
51863;DHT22;37900;52.996;6.278;2024-03-29T00:19:23;17.10;89.20
51863;DHT22;37900;52.996;6.278;2024-03-29T00:21:48;17.10;89.20
51863;DHT22;37900;52.996;6.278;2024-03-29T00:24:14;17.10;89.00
51863;DHT22;37900;52.996;6.278;2024-03-29T00:26:40;17.10;89.10
51863;DHT22;37900;52.996;6.278;2024-03-29T00:29:05;17.00;89.00
51863;DHT22;37900;52.996;6.278;2024-03-29T00:31:31;17.00;88.90
51863;DHT22;37900;52.996;6.278;2024-03-29T00:33:56;17.00;88.90
51863;DHT22;37900;52.996;6.278;2024-03-29T00:36:22;17.00;88.80
51863;DHT22;37900;52.996;6.278;2024-03-29T00:38:47;17.00;89.10
51863;DHT22;37900;52.996;6.278;2024-03-29T00:41:13;17.00;88.80
51863;DHT22;37900;52.996;6.278;2024-03-29T00:43:38;17.00;88.80
51863;DHT22;37900;52.996;6.278;2024-03-29T00:46:04;17.00;88.80
51863;DHT22;37900;52.996;6.278;2024-03-29T00:48:30;17.00;88.60
51863;DHT22;37900;52.996;6.278;2024-03-29T00:50:55;17.00;88.70
51863;DHT22;37900;52.996;6.278;2024-03-29T00:53:21;17.00;88.60
51863;DHT22;37900;52.996;6.278;2024-03-29T00:55:46;17.00;88.60
51863;DHT22;37900;52.996;6.278;2024-03-29T00:58:12;17.00;88.50
51863;DHT22;37900;52.996;6.278;2024-03-29T01:00:38;17.00;88.60
51863;DHT22;37900;52.996;6.278;2024-03-29T01:03:04;17.00;88.60
51863;DHT22;37900;52.996;6.278;2024-03-29T01:05:29;17.00;88.40
51863;DHT22;37900;52.996;6.278;2024-03-29T01:07:55;17.00;88.40
51863;DHT22;37900;52.996;6.278;2024-03-29T01:10:20;17.00;88.30
51863;DHT22;37900;52.996;6.278;2024-03-29T01:12:47;17.00;88.60
51863;DHT22;37900;52.996;6.278;2024-03-29T01:15:13;16.90;88.20
51863;DHT22;37900;52.996;6.278;2024-03-29T01:17:38;17.00;88.20
51863;DHT22;37900;52.996;6.278;2024-03-29T01:20:04;17.00;88.20
51863;DHT22;37900;52.996;6.278;2024-03-29T01:22:30;16.90;88.10
51863;DHT22;37900;52.996;6.278;2024-03-29T01:24:55;16.90;88.10
51863;DHT22;37900;52.996;6.278;2024-03-29T01:27:22;16.90;88.00
51863;DHT22;37900;52.996;6.278;2024-03-29T01:29:47;16.90;88.60
51863;DHT22;37900;52.996;6.278;2024-03-29T01:32:13;16.90;88.00
51863;DHT22;37900;52.996;6.278;2024-03-29T01:34:38;16.90;88.00
51863;DHT22;37900;52.996;6.278;2024-03-29T01:37:04;16.90;87.90
51863;DHT22;37900;52.996;6.278;2024-03-29T01:39:30;16.90;87.80
51863;DHT22;37900;52.996;6.278;2024-03-29T01:41:56;16.90;87.90
51863;DHT22;37900;52.996;6.278;2024-03-29T01:44:22;16.90;87.80
51863;DHT22;37900;52.996;6.278;2024-03-29T01:46:48;16.90;87.80
51863;DHT22;37900;52.996;6.278;2024-03-29T01:49:13;16.90;87.80
51863;DHT22;37900;52.996;6.278;2024-03-29T01:51:39;16.90;87.70
51863;DHT22;37900;52.996;6.278;2024-03-29T01:54:05;16.90;87.80
51863;DHT22;37900;52.996;6.278;2024-03-29T01:56:31;16.90;87.70
51863;DHT22;37900;52.996;6.278;2024-03-29T01:58:57;16.90;87.70
51863;DHT22;37900;52.996;6.278;2024-03-29T02:01:23;16.90;87.60
51863;DHT22;37900;52.996;6.278;2024-03-29T02:03:50;16.90;87.50
51863;DHT22;37900;52.996;6.278;2024-03-29T02:06:16;16.90;87.50
51863;DHT22;37900;52.996;6.278;2024-03-29T02:08:42;16.80;87.40
51863;DHT22;37900;52.996;6.278;2024-03-29T02:11:08;16.90;87.50
51863;DHT22;37900;52.996;6.278;2024-03-29T02:13:33;16.80;87.40
51863;DHT22;37900;52.996;6.278;2024-03-29T02:15:59;16.80;87.30
51863;DHT22;37900;52.996;6.278;2024-03-29T02:18:24;16.80;87.40
51863;DHT22;37900;52.996;6.278;2024-03-29T02:20:50;16.80;87.80
51863;DHT22;37900;52.996;6.278;2024-03-29T02:23:17;16.90;87.40
51863;DHT22;37900;52.996;6.278;2024-03-29T02:25:43;16.80;87.30
51863;DHT22;37900;52.996;6.278;2024-03-29T02:28:09;16.80;87.20
51863;DHT22;37900;52.996;6.278;2024-03-29T02:30:34;16.80;87.20
51863;DHT22;37900;52.996;6.278;2024-03-29T02:33:00;16.80;87.20
51863;DHT22;37900;52.996;6.278;2024-03-29T02:35:26;16.80;87.10
51863;DHT22;37900;52.996;6.278;2024-03-29T02:37:51;16.80;87.10
51863;DHT22;37900;52.996;6.278;2024-03-29T02:40:18;16.80;87.10
51863;DHT22;37900;52.996;6.278;2024-03-29T02:42:43;16.80;87.00
51863;DHT22;37900;52.996;6.278;2024-03-29T02:45:09;16.80;87.00
51863;DHT22;37900;52.996;6.278;2024-03-29T02:47:34;16.80;87.00
51863;DHT22;37900;52.996;6.278;2024-03-29T02:50:00;16.80;87.00
51863;DHT22;37900;52.996;6.278;2024-03-29T02:52:26;17.20;87.10
51863;DHT22;37900;52.996;6.278;2024-03-29T02:54:51;16.80;86.90
51863;DHT22;37900;52.996;6.278;2024-03-29T02:57:17;16.80;86.90
51863;DHT22;37900;52.996;6.278;2024-03-29T02:59:43;16.80;86.90
51863;DHT22;37900;52.996;6.278;2024-03-29T03:02:08;16.70;86.80
51863;DHT22;37900;52.996;6.278;2024-03-29T03:04:34;16.80;86.80
51863;DHT22;37900;52.996;6.278;2024-03-29T03:06:59;16.70;86.70
51863;DHT22;37900;52.996;6.278;2024-03-29T03:09:44;16.70;86.70
51863;DHT22;37900;52.996;6.278;2024-03-29T03:12:31;16.70;86.70
51863;DHT22;37900;52.996;6.278;2024-03-29T03:15:00;16.80;86.70
51863;DHT22;37900;52.996;6.278;2024-03-29T03:17:26;16.70;86.60
51863;DHT22;37900;52.996;6.278;2024-03-29T03:19:51;16.70;86.60
51863;DHT22;37900;52.996;6.278;2024-03-29T03:22:17;16.70;86.60
51863;DHT22;37900;52.996;6.278;2024-03-29T03:24:43;16.70;86.60
51863;DHT22;37900;52.996;6.278;2024-03-29T03:27:09;16.70;86.50
51863;DHT22;37900;52.996;6.278;2024-03-29T03:29:34;16.70;86.60
51863;DHT22;37900;52.996;6.278;2024-03-29T03:32:00;16.70;86.50
51863;DHT22;37900;52.996;6.278;2024-03-29T03:34:25;16.70;86.40
51863;DHT22;37900;52.996;6.278;2024-03-29T03:36:51;16.70;86.50
51863;DHT22;37900;52.996;6.278;2024-03-29T03:39:16;16.70;86.50
51863;DHT22;37900;52.996;6.278;2024-03-29T03:41:42;16.70;86.50
51863;DHT22;37900;52.996;6.278;2024-03-29T03:44:07;16.70;86.40
51863;DHT22;37900;52.996;6.278;2024-03-29T03:46:33;16.70;86.40
51863;DHT22;37900;52.996;6.278;2024-03-29T03:48:59;16.70;86.30
51863;DHT22;37900;52.996;6.278;2024-03-29T03:51:24;16.70;86.30
51863;DHT22;37900;52.996;6.278;2024-03-29T03:53:50;16.70;86.30
51863;DHT22;37900;52.996;6.278;2024-03-29T03:56:15;16.70;86.30
51863;DHT22;37900;52.996;6.278;2024-03-29T03:58:44;16.60;86.30
51863;DHT22;37900;52.996;6.278;2024-03-29T04:01:10;16.60;86.70
51863;DHT22;37900;52.996;6.278;2024-03-29T04:03:35;16.70;85.70
51863;DHT22;37900;52.996;6.278;2024-03-29T04:06:04;16.60;86.10
51863;DHT22;37900;52.996;6.278;2024-03-29T04:08:30;16.70;85.60
51863;DHT22;37900;52.996;6.278;2024-03-29T04:10:56;16.70;86.20
51863;DHT22;37900;52.996;6.278;2024-03-29T04:13:21;16.60;86.10
51863;DHT22;37900;52.996;6.278;2024-03-29T04:15:47;17.60;86.60
51863;DHT22;37900;52.996;6.278;2024-03-29T04:18:13;16.60;86.00
51863;DHT22;37900;52.996;6.278;2024-03-29T04:20:39;16.60;86.00
51863;DHT22;37900;52.996;6.278;2024-03-29T04:23:05;16.60;86.10
51863;DHT22;37900;52.996;6.278;2024-03-29T04:25:31;16.60;86.00
51863;DHT22;37900;52.996;6.278;2024-03-29T04:27:56;16.60;85.90
51863;DHT22;37900;52.996;6.278;2024-03-29T04:30:22;16.60;85.90
51863;DHT22;37900;52.996;6.278;2024-03-29T04:32:47;16.60;85.90
51863;DHT22;37900;52.996;6.278;2024-03-29T04:35:13;16.60;85.90
51863;DHT22;37900;52.996;6.278;2024-03-29T04:37:39;16.60;85.90
51863;DHT22;37900;52.996;6.278;2024-03-29T04:40:04;16.60;85.80
51863;DHT22;37900;52.996;6.278;2024-03-29T04:42:31;16.60;85.30
51863;DHT22;37900;52.996;6.278;2024-03-29T04:44:57;16.60;85.20
51863;DHT22;37900;52.996;6.278;2024-03-29T04:47:23;16.60;85.80
51863;DHT22;37900;52.996;6.278;2024-03-29T04:49:48;16.60;85.70
51863;DHT22;37900;52.996;6.278;2024-03-29T04:52:14;16.60;85.80
51863;DHT22;37900;52.996;6.278;2024-03-29T04:54:40;16.50;85.60
51863;DHT22;37900;52.996;6.278;2024-03-29T04:57:05;16.60;85.60
51863;DHT22;37900;52.996;6.278;2024-03-29T04:59:34;16.50;85.60
51863;DHT22;37900;52.996;6.278;2024-03-29T05:02:00;16.60;85.60
51863;DHT22;37900;52.996;6.278;2024-03-29T05:04:25;16.50;85.60
51863;DHT22;37900;52.996;6.278;2024-03-29T05:06:55;16.50;85.70
51863;DHT22;37900;52.996;6.278;2024-03-29T05:09:20;17.90;86.20
51863;DHT22;37900;52.996;6.278;2024-03-29T05:11:46;16.50;85.50
51863;DHT22;37900;52.996;6.278;2024-03-29T05:14:13;16.60;85.60
51863;DHT22;37900;52.996;6.278;2024-03-29T05:16:40;16.50;85.50
51863;DHT22;37900;52.996;6.278;2024-03-29T05:19:05;16.50;85.50
51863;DHT22;37900;52.996;6.278;2024-03-29T05:21:31;16.50;85.50
51863;DHT22;37900;52.996;6.278;2024-03-29T05:23:57;16.50;85.50
51863;DHT22;37900;52.996;6.278;2024-03-29T05:26:22;16.50;85.50
51863;DHT22;37900;52.996;6.278;2024-03-29T05:28:48;16.50;85.60
51863;DHT22;37900;52.996;6.278;2024-03-29T05:31:14;16.50;85.50
51863;DHT22;37900;52.996;6.278;2024-03-29T05:33:40;16.50;85.40
51863;DHT22;37900;52.996;6.278;2024-03-29T05:36:06;16.50;85.50
51863;DHT22;37900;52.996;6.278;2024-03-29T05:38:34;16.50;85.10
51863;DHT22;37900;52.996;6.278;2024-03-29T05:40:59;16.50;85.40
51863;DHT22;37900;52.996;6.278;2024-03-29T05:43:25;16.50;85.50
51863;DHT22;37900;52.996;6.278;2024-03-29T05:45:53;16.50;85.30
51863;DHT22;37900;52.996;6.278;2024-03-29T05:48:19;16.50;85.30
51863;DHT22;37900;52.996;6.278;2024-03-29T05:50:44;16.50;85.30
51863;DHT22;37900;52.996;6.278;2024-03-29T05:53:10;16.50;85.30
51863;DHT22;37900;52.996;6.278;2024-03-29T05:55:36;16.50;85.20
51863;DHT22;37900;52.996;6.278;2024-03-29T05:58:01;16.50;85.20
51863;DHT22;37900;52.996;6.278;2024-03-29T06:00:28;16.50;85.20
51863;DHT22;37900;52.996;6.278;2024-03-29T06:02:54;20.00;87.10
51863;DHT22;37900;52.996;6.278;2024-03-29T06:05:20;16.50;85.20
51863;DHT22;37900;52.996;6.278;2024-03-29T06:07:45;16.40;85.10
51863;DHT22;37900;52.996;6.278;2024-03-29T06:10:11;16.50;85.20
51863;DHT22;37900;52.996;6.278;2024-03-29T06:12:37;16.40;85.10
51863;DHT22;37900;52.996;6.278;2024-03-29T06:15:04;16.50;85.10
51863;DHT22;37900;52.996;6.278;2024-03-29T06:17:49;16.40;85.00
51863;DHT22;37900;52.996;6.278;2024-03-29T06:20:14;16.40;85.00
51863;DHT22;37900;52.996;6.278;2024-03-29T06:22:40;16.40;85.00
51863;DHT22;37900;52.996;6.278;2024-03-29T06:25:05;16.40;85.10
51863;DHT22;37900;52.996;6.278;2024-03-29T06:27:31;16.40;85.10
51863;DHT22;37900;52.996;6.278;2024-03-29T06:29:57;16.40;85.00
51863;DHT22;37900;52.996;6.278;2024-03-29T06:32:23;16.40;85.00
51863;DHT22;37900;52.996;6.278;2024-03-29T06:34:49;16.40;85.00
51863;DHT22;37900;52.996;6.278;2024-03-29T06:37:15;16.40;84.90
51863;DHT22;37900;52.996;6.278;2024-03-29T06:39:40;16.40;85.10
51863;DHT22;37900;52.996;6.278;2024-03-29T06:42:07;16.40;84.90
51863;DHT22;37900;52.996;6.278;2024-03-29T06:44:33;16.40;85.10
51863;DHT22;37900;52.996;6.278;2024-03-29T06:46:59;16.40;84.80
51863;DHT22;37900;52.996;6.278;2024-03-29T06:49:24;16.40;84.90
51863;DHT22;37900;52.996;6.278;2024-03-29T06:51:50;16.40;84.80
51863;DHT22;37900;52.996;6.278;2024-03-29T06:54:15;16.40;84.90
51863;DHT22;37900;52.996;6.278;2024-03-29T06:56:41;16.40;84.90
51863;DHT22;37900;52.996;6.278;2024-03-29T06:59:07;17.80;85.70
51863;DHT22;37900;52.996;6.278;2024-03-29T07:01:33;16.40;84.80
51863;DHT22;37900;52.996;6.278;2024-03-29T07:03:59;16.40;85.30
51863;DHT22;37900;52.996;6.278;2024-03-29T07:06:25;16.40;84.80
51863;DHT22;37900;52.996;6.278;2024-03-29T07:08:50;16.40;84.80
51863;DHT22;37900;52.996;6.278;2024-03-29T07:11:16;16.40;84.80
51863;DHT22;37900;52.996;6.278;2024-03-29T07:13:41;16.40;84.70
51863;DHT22;37900;52.996;6.278;2024-03-29T07:16:07;16.40;84.80
51863;DHT22;37900;52.996;6.278;2024-03-29T07:18:33;16.40;84.70
51863;DHT22;37900;52.996;6.278;2024-03-29T07:20:58;16.40;84.80
51863;DHT22;37900;52.996;6.278;2024-03-29T07:23:24;16.40;84.70
51863;DHT22;37900;52.996;6.278;2024-03-29T07:26:00;16.40;84.70
51863;DHT22;37900;52.996;6.278;2024-03-29T07:28:26;16.40;84.60
51863;DHT22;37900;52.996;6.278;2024-03-29T07:30:52;16.40;84.60
51863;DHT22;37900;52.996;6.278;2024-03-29T07:33:19;16.40;84.60
51863;DHT22;37900;52.996;6.278;2024-03-29T07:35:47;16.40;84.60
51863;DHT22;37900;52.996;6.278;2024-03-29T07:38:13;16.30;84.10
51863;DHT22;37900;52.996;6.278;2024-03-29T07:40:41;16.40;84.60
51863;DHT22;37900;52.996;6.278;2024-03-29T07:43:06;16.40;84.60
51863;DHT22;37900;52.996;6.278;2024-03-29T07:45:32;16.30;84.10
51863;DHT22;37900;52.996;6.278;2024-03-29T07:47:57;16.30;84.60
51863;DHT22;37900;52.996;6.278;2024-03-29T07:50:23;16.40;84.70
51863;DHT22;37900;52.996;6.278;2024-03-29T07:52:50;16.40;84.60
51863;DHT22;37900;52.996;6.278;2024-03-29T07:55:16;16.40;84.70
51863;DHT22;37900;52.996;6.278;2024-03-29T07:57:42;16.40;84.60
51863;DHT22;37900;52.996;6.278;2024-03-29T08:00:07;16.30;84.50
51863;DHT22;37900;52.996;6.278;2024-03-29T08:02:35;16.30;84.50
51863;DHT22;37900;52.996;6.278;2024-03-29T08:05:01;16.30;84.60
51863;DHT22;37900;52.996;6.278;2024-03-29T08:07:26;16.40;85.20
51863;DHT22;37900;52.996;6.278;2024-03-29T08:09:52;16.30;84.70
51863;DHT22;37900;52.996;6.278;2024-03-29T08:12:18;16.40;84.70
51863;DHT22;37900;52.996;6.278;2024-03-29T08:14:43;16.30;84.60
51863;DHT22;37900;52.996;6.278;2024-03-29T08:17:09;16.40;84.60
51863;DHT22;37900;52.996;6.278;2024-03-29T08:19:35;16.40;84.60
51863;DHT22;37900;52.996;6.278;2024-03-29T08:22:01;16.40;85.20
51863;DHT22;37900;52.996;6.278;2024-03-29T08:24:27;16.30;84.70
51863;DHT22;37900;52.996;6.278;2024-03-29T08:26:53;16.30;84.50
51863;DHT22;37900;52.996;6.278;2024-03-29T08:29:18;16.30;84.60
51863;DHT22;37900;52.996;6.278;2024-03-29T08:31:44;16.30;84.50
51863;DHT22;37900;52.996;6.278;2024-03-29T08:34:10;16.30;84.70
51863;DHT22;37900;52.996;6.278;2024-03-29T08:36:38;16.30;84.70
51863;DHT22;37900;52.996;6.278;2024-03-29T08:39:04;16.40;84.60
51863;DHT22;37900;52.996;6.278;2024-03-29T08:41:30;16.40;84.80
51863;DHT22;37900;52.996;6.278;2024-03-29T08:43:56;16.40;85.10
51863;DHT22;37900;52.996;6.278;2024-03-29T08:46:21;16.40;85.30
51863;DHT22;37900;52.996;6.278;2024-03-29T08:48:48;16.40;85.50
51863;DHT22;37900;52.996;6.278;2024-03-29T08:51:13;16.40;85.60
51863;DHT22;37900;52.996;6.278;2024-03-29T08:53:40;16.40;85.90
51863;DHT22;37900;52.996;6.278;2024-03-29T08:56:06;16.40;86.10
51863;DHT22;37900;52.996;6.278;2024-03-29T08:58:34;16.40;86.30
51863;DHT22;37900;52.996;6.278;2024-03-29T09:01:00;16.50;86.60
51863;DHT22;37900;52.996;6.278;2024-03-29T09:03:29;16.50;86.70
51863;DHT22;37900;52.996;6.278;2024-03-29T09:05:55;16.50;86.60
51863;DHT22;37900;52.996;6.278;2024-03-29T09:08:20;16.50;86.80
51863;DHT22;37900;52.996;6.278;2024-03-29T09:10:46;16.50;86.90
51863;DHT22;37900;52.996;6.278;2024-03-29T09:13:11;16.60;87.20
51863;DHT22;37900;52.996;6.278;2024-03-29T09:15:38;15.50;86.70
51863;DHT22;37900;52.996;6.278;2024-03-29T09:18:03;16.60;87.20
51863;DHT22;37900;52.996;6.278;2024-03-29T09:20:36;16.70;87.20
51863;DHT22;37900;52.996;6.278;2024-03-29T09:23:02;17.80;87.70
51863;DHT22;37900;52.996;6.278;2024-03-29T09:25:27;16.70;87.20
51863;DHT22;37900;52.996;6.278;2024-03-29T09:27:53;16.70;87.20
51863;DHT22;37900;52.996;6.278;2024-03-29T09:30:18;16.70;87.10
51863;DHT22;37900;52.996;6.278;2024-03-29T09:32:45;16.70;87.10
51863;DHT22;37900;52.996;6.278;2024-03-29T09:35:11;16.70;87.10
51863;DHT22;37900;52.996;6.278;2024-03-29T09:37:36;16.70;87.10
51863;DHT22;37900;52.996;6.278;2024-03-29T09:40:03;16.80;87.10
51863;DHT22;37900;52.996;6.278;2024-03-29T09:42:30;16.70;87.00
51863;DHT22;37900;52.996;6.278;2024-03-29T09:44:57;16.80;87.10
51863;DHT22;37900;52.996;6.278;2024-03-29T09:47:24;19.50;88.50
51863;DHT22;37900;52.996;6.278;2024-03-29T09:49:51;16.80;87.00
51863;DHT22;37900;52.996;6.278;2024-03-29T09:52:18;16.80;87.10
51863;DHT22;37900;52.996;6.278;2024-03-29T09:54:44;16.80;87.10
51863;DHT22;37900;52.996;6.278;2024-03-29T09:57:10;16.80;87.20
51863;DHT22;37900;52.996;6.278;2024-03-29T09:59:37;16.80;87.10
51863;DHT22;37900;52.996;6.278;2024-03-29T10:02:04;16.90;87.20
51863;DHT22;37900;52.996;6.278;2024-03-29T10:04:32;16.90;87.20
51863;DHT22;37900;52.996;6.278;2024-03-29T10:06:58;16.90;87.30
51863;DHT22;37900;52.996;6.278;2024-03-29T10:09:24;16.90;87.20
51863;DHT22;37900;52.996;6.278;2024-03-29T10:11:54;16.90;87.30
51863;DHT22;37900;52.996;6.278;2024-03-29T10:14:20;16.90;87.30
51863;DHT22;37900;52.996;6.278;2024-03-29T10:16:50;16.90;87.30
51863;DHT22;37900;52.996;6.278;2024-03-29T10:19:16;16.90;87.30
51863;DHT22;37900;52.996;6.278;2024-03-29T10:21:42;17.00;87.40
51863;DHT22;37900;52.996;6.278;2024-03-29T10:24:11;17.00;87.40
51863;DHT22;37900;52.996;6.278;2024-03-29T10:26:37;17.00;87.40
51863;DHT22;37900;52.996;6.278;2024-03-29T10:29:04;17.00;87.40
51863;DHT22;37900;52.996;6.278;2024-03-29T10:31:33;17.00;87.40
51863;DHT22;37900;52.996;6.278;2024-03-29T10:34:01;17.00;87.40
51863;DHT22;37900;52.996;6.278;2024-03-29T10:36:27;17.00;87.40
51863;DHT22;37900;52.996;6.278;2024-03-29T10:38:54;17.00;87.50
51863;DHT22;37900;52.996;6.278;2024-03-29T10:41:20;17.10;87.50
51863;DHT22;37900;52.996;6.278;2024-03-29T10:43:47;17.10;87.50
51863;DHT22;37900;52.996;6.278;2024-03-29T10:46:13;17.10;87.50
51863;DHT22;37900;52.996;6.278;2024-03-29T10:48:39;17.10;87.50
51863;DHT22;37900;52.996;6.278;2024-03-29T10:51:05;17.10;87.50
51863;DHT22;37900;52.996;6.278;2024-03-29T10:53:31;17.10;87.50
51863;DHT22;37900;52.996;6.278;2024-03-29T10:55:57;17.10;87.50
51863;DHT22;37900;52.996;6.278;2024-03-29T10:58:29;17.10;87.50
51863;DHT22;37900;52.996;6.278;2024-03-29T11:00:58;17.10;87.50
51863;DHT22;37900;52.996;6.278;2024-03-29T11:05:53;17.10;87.40
51863;DHT22;37900;52.996;6.278;2024-03-29T11:08:24;17.10;87.50
51863;DHT22;37900;52.996;6.278;2024-03-29T11:10:51;17.10;87.50
51863;DHT22;37900;52.996;6.278;2024-03-29T11:13:23;17.10;87.50
51863;DHT22;37900;52.996;6.278;2024-03-29T11:15:50;17.20;87.60
51863;DHT22;37900;52.996;6.278;2024-03-29T11:18:17;17.20;87.60
51863;DHT22;37900;52.996;6.278;2024-03-29T11:20:44;17.10;87.50
51863;DHT22;37900;52.996;6.278;2024-03-29T11:23:20;17.20;87.50
51863;DHT22;37900;52.996;6.278;2024-03-29T11:25:48;17.20;87.50
51863;DHT22;37900;52.996;6.278;2024-03-29T11:28:15;17.20;87.50
51863;DHT22;37900;52.996;6.278;2024-03-29T11:30:45;17.20;87.50
51863;DHT22;37900;52.996;6.278;2024-03-29T11:35:59;17.20;87.60
51863;DHT22;37900;52.996;6.278;2024-03-29T11:38:32;17.20;87.70
51863;DHT22;37900;52.996;6.278;2024-03-29T11:43:26;17.20;87.70
51863;DHT22;37900;52.996;6.278;2024-03-29T11:45:54;17.20;87.80
51863;DHT22;37900;52.996;6.278;2024-03-29T11:48:24;17.20;87.90
51863;DHT22;37900;52.996;6.278;2024-03-29T11:50:52;17.20;87.80
51863;DHT22;37900;52.996;6.278;2024-03-29T11:53:19;17.20;87.90
51863;DHT22;37900;52.996;6.278;2024-03-29T11:55:45;17.30;87.90
51863;DHT22;37900;52.996;6.278;2024-03-29T11:58:10;17.20;87.90
51863;DHT22;37900;52.996;6.278;2024-03-29T12:00:37;17.20;88.00
51863;DHT22;37900;52.996;6.278;2024-03-29T12:03:04;17.20;87.90
51863;DHT22;37900;52.996;6.278;2024-03-29T12:05:30;17.20;87.90
51863;DHT22;37900;52.996;6.278;2024-03-29T12:07:56;17.20;88.00
51863;DHT22;37900;52.996;6.278;2024-03-29T12:10:26;17.20;88.30
51863;DHT22;37900;52.996;6.278;2024-03-29T12:12:55;17.20;88.30
51863;DHT22;37900;52.996;6.278;2024-03-29T12:15:21;17.30;88.50
51863;DHT22;37900;52.996;6.278;2024-03-29T12:17:58;17.30;88.90
51863;DHT22;37900;52.996;6.278;2024-03-29T12:20:24;17.30;89.80
51863;DHT22;37900;52.996;6.278;2024-03-29T12:22:49;18.00;90.30
51863;DHT22;37900;52.996;6.278;2024-03-29T12:25:15;17.30;90.20
51863;DHT22;37900;52.996;6.278;2024-03-29T12:27:44;17.30;90.20
51863;DHT22;37900;52.996;6.278;2024-03-29T12:30:12;17.30;90.20
51863;DHT22;37900;52.996;6.278;2024-03-29T12:32:38;17.30;90.20
51863;DHT22;37900;52.996;6.278;2024-03-29T12:35:14;17.30;90.20
51863;DHT22;37900;52.996;6.278;2024-03-29T12:37:47;17.30;90.40
51863;DHT22;37900;52.996;6.278;2024-03-29T12:40:15;17.30;90.20
51863;DHT22;37900;52.996;6.278;2024-03-29T12:42:44;17.40;90.20
51863;DHT22;37900;52.996;6.278;2024-03-29T12:45:09;17.30;90.10
51863;DHT22;37900;52.996;6.278;2024-03-29T12:47:36;17.40;90.10
51863;DHT22;37900;52.996;6.278;2024-03-29T12:50:02;17.30;90.20
51863;DHT22;37900;52.996;6.278;2024-03-29T12:52:39;17.30;90.40
51863;DHT22;37900;52.996;6.278;2024-03-29T12:55:05;17.30;90.60
51863;DHT22;37900;52.996;6.278;2024-03-29T12:57:32;17.40;91.00
51863;DHT22;37900;52.996;6.278;2024-03-29T12:59:58;17.40;91.30
51863;DHT22;37900;52.996;6.278;2024-03-29T13:02:24;17.40;91.60
51863;DHT22;37900;52.996;6.278;2024-03-29T13:04:49;17.40;91.70
51863;DHT22;37900;52.996;6.278;2024-03-29T13:07:16;17.30;91.70
51863;DHT22;37900;52.996;6.278;2024-03-29T13:09:42;17.40;91.90
51863;DHT22;37900;52.996;6.278;2024-03-29T13:12:07;20.80;92.90
51863;DHT22;37900;52.996;6.278;2024-03-29T13:14:33;17.40;92.20
51863;DHT22;37900;52.996;6.278;2024-03-29T13:16:59;17.40;92.30
51863;DHT22;37900;52.996;6.278;2024-03-29T13:19:25;17.40;92.50
51863;DHT22;37900;52.996;6.278;2024-03-29T13:21:50;17.40;92.50
51863;DHT22;37900;52.996;6.278;2024-03-29T13:24:16;17.40;92.40
51863;DHT22;37900;52.996;6.278;2024-03-29T13:26:41;17.40;92.40
51863;DHT22;37900;52.996;6.278;2024-03-29T13:29:07;17.40;92.30
51863;DHT22;37900;52.996;6.278;2024-03-29T13:31:33;17.40;92.30
51863;DHT22;37900;52.996;6.278;2024-03-29T13:33:58;17.50;92.20
51863;DHT22;37900;52.996;6.278;2024-03-29T13:36:40;17.40;92.10
51863;DHT22;37900;52.996;6.278;2024-03-29T13:39:07;17.40;92.10
51863;DHT22;37900;52.996;6.278;2024-03-29T13:41:34;17.40;92.10
51863;DHT22;37900;52.996;6.278;2024-03-29T13:44:02;17.40;92.00
51863;DHT22;37900;52.996;6.278;2024-03-29T13:46:34;17.40;92.00
51863;DHT22;37900;52.996;6.278;2024-03-29T13:49:00;17.40;91.90
51863;DHT22;37900;52.996;6.278;2024-03-29T13:51:26;17.40;91.90
51863;DHT22;37900;52.996;6.278;2024-03-29T13:53:52;17.40;91.80
51863;DHT22;37900;52.996;6.278;2024-03-29T13:56:21;17.40;91.80
51863;DHT22;37900;52.996;6.278;2024-03-29T13:58:47;17.40;91.80
51863;DHT22;37900;52.996;6.278;2024-03-29T14:01:13;17.40;91.70
51863;DHT22;37900;52.996;6.278;2024-03-29T14:03:38;17.40;91.70
51863;DHT22;37900;52.996;6.278;2024-03-29T14:06:04;17.40;91.60
51863;DHT22;37900;52.996;6.278;2024-03-29T14:08:30;17.40;91.60
51863;DHT22;37900;52.996;6.278;2024-03-29T14:10:57;17.40;91.50
51863;DHT22;37900;52.996;6.278;2024-03-29T14:13:23;17.40;91.50
51863;DHT22;37900;52.996;6.278;2024-03-29T14:15:49;17.40;91.50
51863;DHT22;37900;52.996;6.278;2024-03-29T14:18:14;17.40;91.40
51863;DHT22;37900;52.996;6.278;2024-03-29T14:20:40;17.40;91.40
51863;DHT22;37900;52.996;6.278;2024-03-29T14:23:06;17.40;91.40
51863;DHT22;37900;52.996;6.278;2024-03-29T14:25:32;17.40;91.50
51863;DHT22;37900;52.996;6.278;2024-03-29T14:27:57;17.40;91.50
51863;DHT22;37900;52.996;6.278;2024-03-29T14:30:25;17.40;91.50
51863;DHT22;37900;52.996;6.278;2024-03-29T14:32:51;17.40;91.40
51863;DHT22;37900;52.996;6.278;2024-03-29T14:35:17;17.40;91.40
51863;DHT22;37900;52.996;6.278;2024-03-29T14:37:43;17.40;91.40
51863;DHT22;37900;52.996;6.278;2024-03-29T14:40:09;17.40;91.40
51863;DHT22;37900;52.996;6.278;2024-03-29T14:42:43;17.40;91.40
51863;DHT22;37900;52.996;6.278;2024-03-29T14:45:09;17.50;91.40
51863;DHT22;37900;52.996;6.278;2024-03-29T14:47:37;18.60;91.60
51863;DHT22;37900;52.996;6.278;2024-03-29T14:50:03;17.40;91.40
51863;DHT22;37900;52.996;6.278;2024-03-29T14:52:36;17.40;91.40
51863;DHT22;37900;52.996;6.278;2024-03-29T14:55:03;17.50;91.40
51863;DHT22;37900;52.996;6.278;2024-03-29T14:57:29;17.50;91.40
51863;DHT22;37900;52.996;6.278;2024-03-29T14:59:55;17.50;91.40
51863;DHT22;37900;52.996;6.278;2024-03-29T15:02:20;17.50;91.50
51863;DHT22;37900;52.996;6.278;2024-03-29T15:04:46;17.50;91.40
51863;DHT22;37900;52.996;6.278;2024-03-29T15:07:14;17.50;91.40
51863;DHT22;37900;52.996;6.278;2024-03-29T15:09:40;17.50;91.30
51863;DHT22;37900;52.996;6.278;2024-03-29T15:12:08;17.50;91.30
51863;DHT22;37900;52.996;6.278;2024-03-29T15:14:34;17.50;91.20
51863;DHT22;37900;52.996;6.278;2024-03-29T15:17:03;17.50;91.30
51863;DHT22;37900;52.996;6.278;2024-03-29T15:19:29;17.50;91.30
51863;DHT22;37900;52.996;6.278;2024-03-29T15:21:55;17.50;91.30
51863;DHT22;37900;52.996;6.278;2024-03-29T15:24:21;17.50;91.40
51863;DHT22;37900;52.996;6.278;2024-03-29T15:26:47;17.50;91.30
51863;DHT22;37900;52.996;6.278;2024-03-29T15:29:13;17.50;91.30
51863;DHT22;37900;52.996;6.278;2024-03-29T15:31:41;17.50;91.30
51863;DHT22;37900;52.996;6.278;2024-03-29T15:34:08;17.50;91.20